Coffee City, Texas
Current Conditions -  °F | °C
As of 4:55 AM on Sunday 23 Nov 2014 (Local Time) from KPSN Reporting Station
Light Rain Light Rain  
Wind Chill: 62°   Ceiling: 400
Heat Index: 62°   Visibility: 5mi
Dew Point: 62°   Wind: 7mph
Humidity: 100%   Direction: 260°W
Pressure: 29.63"   Gusts: NA
Location:  32.0056°N, 95.5543°W
Report Text: KPSN 231055Z AUTO 26006KT 5SM -RA OVC004 16/16 A2963 RMK AO2 T01650165
Loading
Personal Weather Stations






























Interactive Weather Map New forecast layout! Learn more

10-Day Weather Forecast

Advertisements
Track Severe Weather on mobile